Time;durP1;ratioP1;P1;durP2;ratioP2;P2;SDS_P1;SDS_P2;PMS_P1;PMS_P2;Temp;Humidity;BMP_temperature;BMP_pressure;BME280_temperature;BME280_humidity;BME280_pressure;Samples;Min_cycle;Max_cycle;Signal;HPM_P1;HPM_P2
2022/06/27 00:00:12;;;;;;;;;;;;;;;26.72;38.60;100750.69;5082925;28;941;-24
2022/06/27 00:02:37;;;;;;;;;;;;;;;26.72;38.45;100748.00;5088240;28;1173;-24
2022/06/27 00:05:03;;;;;;;;;;;;;;;26.76;38.81;100747.44;5119558;27;1910;-23
2022/06/27 00:07:28;;;;;;;;;;;;;;;26.77;38.32;100754.53;5077103;28;1099;-25
2022/06/27 00:09:54;;;;;;;;;;;;;;;26.83;38.26;100749.41;5087569;28;838;-24
2022/06/27 00:12:19;;;;;;;;;;;;;;;26.85;38.17;100756.31;5093341;28;1058;-25
2022/06/27 00:14:44;;;;;;;;;;;;;;;26.85;38.48;100760.88;5084122;28;1056;-25
2022/06/27 00:17:09;;;;;;;;;;;;;;;26.82;38.11;100756.69;5081656;28;1150;-26
2022/06/27 00:19:35;;;;;;;;;;;;;;;26.83;38.02;100771.84;5086089;28;1028;-27
2022/06/27 00:22:00;;;;;;;;;;;;;;;26.82;38.13;100759.38;5084323;28;1157;-26
2022/06/27 00:24:25;;;;;;;;;;;;;;;26.82;38.30;100761.25;5083947;28;1225;-26
2022/06/27 00:26:51;;;;;;;;;;;;;;;26.83;38.26;100763.75;5086317;28;1898;-24
2022/06/27 00:29:16;;;;;;;;;;;;;;;26.84;37.58;100756.50;5078280;28;1256;-24
2022/06/27 00:31:41;;;;;;;;;;;;;;;26.86;38.16;100757.19;5076533;28;1036;-23
2022/06/27 00:34:06;;;;;;;;;;;;;;;26.73;37.64;100755.91;5081272;28;1178;-24
2022/06/27 00:36:32;;;;;;;;;;;;;;;26.68;38.17;100754.75;5092461;28;952;-25
2022/06/27 00:38:57;;;;;;;;;;;;;;;26.73;38.11;100755.06;5081383;28;981;-24
2022/06/27 00:41:22;;;;;;;;;;;;;;;26.81;37.55;100755.00;5084808;28;1171;-23
2022/06/27 00:43:48;;;;;;;;;;;;;;;26.82;38.24;100755.84;5079981;28;1084;-24
2022/06/27 00:46:13;;;;;;;;;;;;;;;26.79;37.60;100762.47;5091880;28;1909;-23
2022/06/27 00:48:38;;;;;;;;;;;;;;;26.85;37.79;100756.31;5078682;28;1395;-26
2022/06/27 00:51:04;;;;;;;;;;;;;;;26.78;37.90;100752.66;5081765;28;972;-24
2022/06/27 00:53:29;;;;;;;;;;;;;;;26.83;38.11;100752.97;5078565;28;1000;-25
2022/06/27 00:55:55;;;;;;;;;;;;;;;26.86;38.05;100746.38;5108722;27;996;-24
2022/06/27 00:58:20;;;;;;;;;;;;;;;26.84;37.70;100743.84;5076243;28;1174;-26
2022/06/27 01:00:45;;;;;;;;;;;;;;;26.88;37.81;100744.31;5086597;28;929;-26
2022/06/27 01:03:10;;;;;;;;;;;;;;;26.85;37.63;100750.06;5082761;28;1136;-25
2022/06/27 01:05:36;;;;;;;;;;;;;;;26.90;37.54;100759.31;5091673;28;1982;-24
2022/06/27 01:08:01;;;;;;;;;;;;;;;26.81;37.34;100760.38;5076385;28;1119;-23
2022/06/27 01:10:26;;;;;;;;;;;;;;;26.84;37.61;100759.22;5077461;28;965;-25
2022/06/27 01:12:52;;;;;;;;;;;;;;;26.84;37.45;100765.41;5092310;28;866;-25
2022/06/27 01:15:17;;;;;;;;;;;;;;;26.90;37.13;100766.56;5080984;28;988;-23
2022/06/27 01:17:42;;;;;;;;;;;;;;;26.87;37.38;100764.25;5116820;27;1170;-24
2022/06/27 01:20:08;;;;;;;;;;;;;;;26.92;37.00;100769.94;5121174;27;1024;-24
2022/06/27 01:22:33;;;;;;;;;;;;;;;26.91;36.96;100762.84;5088016;28;999;-25
2022/06/27 01:24:58;;;;;;;;;;;;;;;26.89;37.17;100764.91;5096060;28;1964;-25
2022/06/27 01:27:24;;;;;;;;;;;;;;;26.94;36.81;100765.22;5082682;28;1170;-29
2022/06/27 01:29:49;;;;;;;;;;;;;;;26.90;37.55;100763.88;5092718;28;1059;-24
2022/06/27 01:32:14;;;;;;;;;;;;;;;26.88;36.94;100763.22;5079417;28;984;-25
2022/06/27 01:34:40;;;;;;;;;;;;;;;26.95;36.95;100760.63;5084386;28;1186;-23
2022/06/27 01:37:05;;;;;;;;;;;;;;;26.95;37.17;100760.63;5091131;28;860;-26
2022/06/27 01:39:30;;;;;;;;;;;;;;;26.95;37.00;100763.31;5088953;28;1587;-25
2022/06/27 01:41:56;;;;;;;;;;;;;;;26.95;36.63;100757.94;5085229;28;1012;-23
2022/06/27 01:44:22;;;;;;;;;;;;;;;26.94;37.05;100757.09;5084005;28;1119;-25
2022/06/27 01:47:08;;;;;;;;;;;;;;;27.00;36.61;100756.38;5094014;28;1955;-24
2022/06/27 01:49:34;;;;;;;;;;;;;;;26.92;37.07;100761.84;5083418;28;1279;-24
2022/06/27 01:52:03;;;;;;;;;;;;;;;27.00;36.77;100766.31;5086194;28;921;-25
2022/06/27 01:54:28;;;;;;;;;;;;;;;26.93;37.11;100766.22;5080081;28;1143;-25
2022/06/27 01:56:54;;;;;;;;;;;;;;;26.88;36.95;100765.91;5078690;28;957;-24
2022/06/27 01:59:20;;;;;;;;;;;;;;;26.97;36.97;100761.28;5085261;28;945;-24
2022/06/27 02:01:45;;;;;;;;;;;;;;;26.97;37.08;100767.53;5088876;28;953;-27
2022/06/27 02:04:11;;;;;;;;;;;;;;;26.96;37.31;100770.41;5085246;28;1168;-24
2022/06/27 02:06:36;;;;;;;;;;;;;;;26.95;37.27;100763.31;5082638;28;1910;-25
2022/06/27 02:09:05;;;;;;;;;;;;;;;27.06;37.19;100773.72;5089397;28;1039;-24
2022/06/27 02:11:30;;;;;;;;;;;;;;;26.92;36.95;100764.53;5085302;28;988;-24
2022/06/27 02:13:56;;;;;;;;;;;;;;;26.97;36.80;100775.63;5086397;28;964;-23
2022/06/27 02:16:21;;;;;;;;;;;;;;;27.04;37.24;100772.22;5117021;27;821;-24
2022/06/27 02:18:46;;;;;;;;;;;;;;;26.97;36.98;100762.13;5087385;28;995;-24
2022/06/27 02:21:13;;;;;;;;;;;;;;;27.04;36.82;100764.13;5086841;28;996;-24
2022/06/27 02:23:38;;;;;;;;;;;;;;;27.06;37.00;100767.50;5079995;28;1012;-25
2022/06/27 02:26:05;;;;;;;;;;;;;;;27.09;37.08;100765.25;5081146;28;1958;-24
2022/06/27 02:28:31;;;;;;;;;;;;;;;27.01;36.86;100758.06;5079437;28;1087;-26
2022/06/27 02:30:56;;;;;;;;;;;;;;;27.08;37.12;100758.19;5112607;27;1123;-24
2022/06/27 02:33:21;;;;;;;;;;;;;;;27.05;37.35;100758.56;5088135;28;973;-26
2022/06/27 02:35:47;;;;;;;;;;;;;;;27.13;37.09;100760.31;5115487;27;988;-24
2022/06/27 02:38:12;;;;;;;;;;;;;;;27.08;37.25;100760.88;5128478;27;999;-25
2022/06/27 02:40:38;;;;;;;;;;;;;;;27.07;37.44;100756.50;5114350;27;976;-26
2022/06/27 02:43:03;;;;;;;;;;;;;;;27.10;37.15;100749.91;5113997;27;1001;-25
2022/06/27 02:45:32;;;;;;;;;;;;;;;27.06;37.48;100754.81;5080462;28;1973;-24
2022/06/27 02:48:00;;;;;;;;;;;;;;;27.05;37.07;100758.56;5081947;28;1134;-24
2022/06/27 02:50:25;;;;;;;;;;;;;;;27.10;37.47;100753.44;5118139;27;1083;-24
2022/06/27 02:52:52;;;;;;;;;;;;;;;27.10;37.48;100753.44;5078797;28;1350;-25
2022/06/27 02:55:17;;;;;;;;;;;;;;;27.12;36.93;100756.81;5111886;27;1037;-27
2022/06/27 02:57:58;;;;;;;;;;;;;;;27.13;37.56;100760.31;5116977;27;1012;-25
2022/06/27 03:00:23;;;;;;;;;;;;;;;27.12;37.69;100753.25;5083724;28;1031;-24
2022/06/27 03:02:48;;;;;;;;;;;;;;;26.96;38.46;100752.34;5111463;27;1406;-25
2022/06/27 03:05:14;;;;;;;;;;;;;;;26.31;41.00;100762.56;5112273;27;1922;-24
2022/06/27 03:07:39;;;;;;;;;;;;;;;25.90;42.61;100754.50;5094199;28;877;-24
2022/06/27 03:10:05;;;;;;;;;;;;;;;25.78;43.10;100767.50;5083194;28;1019;-26
2022/06/27 03:12:30;;;;;;;;;;;;;;;25.76;42.97;100769.53;5087556;28;1167;-24
2022/06/27 03:14:55;;;;;;;;;;;;;;;25.86;42.79;100773.91;5082314;28;1035;-25
2022/06/27 03:17:21;;;;;;;;;;;;;;;25.31;44.66;100771.78;5080065;28;993;-24
2022/06/27 03:19:46;;;;;;;;;;;;;;;25.60;43.92;100764.16;5079030;28;976;-23
2022/06/27 03:22:11;;;;;;;;;;;;;;;25.62;44.10;100767.53;5092747;28;1292;-26
2022/06/27 03:24:37;;;;;;;;;;;;;;;25.38;44.79;100755.78;5090983;28;1004;-25
2022/06/27 03:27:02;;;;;;;;;;;;;;;25.25;45.06;100756.31;5086249;28;2012;-24
2022/06/27 03:29:27;;;;;;;;;;;;;;;25.26;45.26;100758.84;5089550;28;1040;-25
2022/06/27 03:31:53;;;;;;;;;;;;;;;24.91;46.26;100758.16;5094531;28;1051;-24
2022/06/27 03:34:18;;;;;;;;;;;;;;;24.96;45.50;100763.06;5095393;28;964;-23
2022/06/27 03:36:44;;;;;;;;;;;;;;;24.89;45.56;100760.19;5088993;28;889;-26
2022/06/27 03:39:11;;;;;;;;;;;;;;;24.86;45.21;100763.22;5080878;28;1039;-25
2022/06/27 03:41:37;;;;;;;;;;;;;;;24.98;45.63;100771.78;5083325;28;1031;-25
2022/06/27 03:44:04;;;;;;;;;;;;;;;24.72;47.12;100775.47;5078375;28;1011;-23
2022/06/27 03:46:29;;;;;;;;;;;;;;;24.61;47.84;100766.69;5080190;28;1905;-23
2022/06/27 03:51:38;;;;;;;;;;;;;;;25.91;44.13;100790.34;5086909;28;1312;-25
2022/06/27 03:56:11;;;;;;;;;;;;;;;26.44;43.07;100794.38;5101549;27;1332;-26
2022/06/27 03:58:37;;;;;;;;;;;;;;;26.55;42.82;100785.03;5101344;28;826;-29
2022/06/27 04:01:03;;;;;;;;;;;;;;;26.61;43.00;100787.03;5089713;28;1171;-26
2022/06/27 04:03:29;;;;;;;;;;;;;;;26.89;42.12;100789.19;5085282;28;1497;-26
2022/06/27 04:05:54;;;;;;;;;;;;;;;27.07;41.67;100785.38;5080734;28;1119;-26
2022/06/27 04:08:19;;;;;;;;;;;;;;;26.89;41.36;100784.63;5093863;28;944;-28
2022/06/27 04:10:44;;;;;;;;;;;;;;;26.94;41.42;100785.94;5092118;28;909;-27
2022/06/27 04:13:10;;;;;;;;;;;;;;;26.93;41.26;100784.25;5092952;28;1009;-28
2022/06/27 04:15:35;;;;;;;;;;;;;;;26.86;39.68;100784.97;5092555;28;1906;-27
2022/06/27 04:18:00;;;;;;;;;;;;;;;26.87;40.44;100791.22;5093586;28;1012;-28
2022/06/27 04:20:26;;;;;;;;;;;;;;;26.92;39.45;100785.28;5091252;28;1040;-26
2022/06/27 04:22:51;;;;;;;;;;;;;;;26.90;39.36;100780.91;5093285;28;976;-28
2022/06/27 04:25:16;;;;;;;;;;;;;;;26.92;40.32;100788.84;5098406;28;1003;-28
2022/06/27 04:27:42;;;;;;;;;;;;;;;26.86;38.79;100789.56;5093308;28;1248;-24
2022/06/27 04:30:08;;;;;;;;;;;;;;;26.90;39.31;100791.72;5093279;28;1019;-26
2022/06/27 04:32:33;;;;;;;;;;;;;;;26.94;39.28;100794.03;5092911;28;1190;-25
2022/06/27 04:34:59;;;;;;;;;;;;;;;26.94;38.38;100791.34;5093158;28;1968;-28
2022/06/27 04:37:24;;;;;;;;;;;;;;;26.57;41.18;100797.34;5092755;28;1079;-24
2022/06/27 04:39:49;;;;;;;;;;;;;;;26.06;43.22;100792.34;5093248;28;1143;-26
2022/06/27 04:42:15;;;;;;;;;;;;;;;25.95;44.30;100797.09;5093006;28;981;-23
2022/06/27 04:44:41;;;;;;;;;;;;;;;25.76;45.48;100796.47;5093007;28;1163;-23
2022/06/27 04:47:08;;;;;;;;;;;;;;;25.88;44.65;100791.56;5093132;28;1000;-24
2022/06/27 04:49:36;;;;;;;;;;;;;;;25.85;45.48;100794.59;5093124;28;1154;-23
2022/06/27 04:52:03;;;;;;;;;;;;;;;25.89;45.68;100793.22;5089427;28;975;-23
2022/06/27 04:54:28;;;;;;;;;;;;;;;25.82;45.62;100796.81;5092659;28;1910;-24
2022/06/27 04:56:54;;;;;;;;;;;;;;;25.60;46.39;100793.78;5093229;28;1091;-24
2022/06/27 04:59:21;;;;;;;;;;;;;;;25.94;45.60;100786.50;5088543;28;1206;-23
2022/06/27 05:01:47;;;;;;;;;;;;;;;26.32;42.39;100783.13;5098422;28;849;-28
2022/06/27 05:04:12;;;;;;;;;;;;;;;23.24;49.52;100787.84;5098861;28;1015;-28
2022/06/27 05:06:38;;;;;;;;;;;;;;;22.98;49.34;100785.94;5083876;28;1190;-27
2022/06/27 05:09:03;;;;;;;;;;;;;;;22.02;51.54;100790.75;5079067;28;981;-27
2022/06/27 05:11:28;;;;;;;;;;;;;;;22.02;51.57;100794.25;5086556;28;948;-27
2022/06/27 05:13:53;;;;;;;;;;;;;;;21.44;52.89;100792.59;5078359;28;1898;-22
2022/06/27 05:16:19;;;;;;;;;;;;;;;21.02;54.38;100798.09;5078852;28;1063;-24
2022/06/27 05:18:44;;;;;;;;;;;;;;;21.68;54.78;100788.56;5079126;28;957;-23
2022/06/27 05:21:10;;;;;;;;;;;;;;;24.04;47.35;100800.44;5076544;28;1475;-23
2022/06/27 05:23:37;;;;;;;;;;;;;;;24.85;45.92;100810.78;5078914;28;961;-23
2022/06/27 05:26:03;;;;;;;;;;;;;;;25.61;42.70;100812.47;5079185;28;1155;-23
2022/06/27 05:28:28;;;;;;;;;;;;;;;25.58;42.57;100809.28;5084031;28;912;-23
2022/06/27 05:30:53;;;;;;;;;;;;;;;25.39;47.00;100824.81;5078384;28;1142;-23
2022/06/27 05:33:19;;;;;;;;;;;;;;;26.02;41.18;100818.81;5080858;28;976;-23
2022/06/27 05:35:44;;;;;;;;;;;;;;;25.73;42.80;100820.22;5085212;28;1905;-23
2022/06/27 05:38:10;;;;;;;;;;;;;;;26.09;43.48;100813.56;5078386;28;972;-24
2022/06/27 05:40:36;;;;;;;;;;;;;;;22.26;51.61;100805.44;5074358;28;865;-24
2022/06/27 05:43:02;;;;;;;;;;;;;;;20.66;56.42;100808.44;5078365;28;1205;-23
2022/06/27 05:45:28;;;;;;;;;;;;;;;21.38;54.14;100716.38;5078115;28;1031;-23
2022/06/27 05:48:00;;;;;;;;;;;;;;;22.92;47.48;100807.19;5078862;28;1234;-23
2022/06/27 05:50:26;;;;;;;;;;;;;;;20.37;58.44;100810.06;5076588;28;1119;-23
2022/06/27 05:52:53;;;;;;;;;;;;;;;23.13;49.96;100820.28;5084028;28;1214;-24
2022/06/27 05:55:19;;;;;;;;;;;;;;;20.71;55.79;100819.56;5078134;28;1914;-23
2022/06/27 05:57:44;;;;;;;;;;;;;;;20.05;57.97;100803.06;5077802;28;1059;-27
2022/06/27 06:00:11;;;;;;;;;;;;;;;21.55;56.18;100810.31;5077897;28;1230;-28
2022/06/27 06:02:37;;;;;;;;;;;;;;;22.34;49.16;100810.03;5071537;28;1185;-25
2022/06/27 06:05:04;;;;;;;;;;;;;;;20.08;58.45;100810.81;5075807;28;1040;-23
2022/06/27 06:07:29;;;;;;;;;;;;;;;22.61;51.63;100811.06;5077557;28;945;-22
2022/06/27 06:09:54;;;;;;;;;;;;;;;20.78;55.07;100811.84;5077926;28;965;-22
2022/06/27 06:12:20;;;;;;;;;;;;;;;20.20;60.84;100806.22;5077195;28;1016;-23
2022/06/27 06:14:46;;;;;;;;;;;;;;;23.21;47.90;100809.63;5077799;28;1957;-35
2022/06/27 06:17:12;;;;;;;;;;;;;;;20.42;55.74;100806.97;5077466;28;1126;-38
2022/06/27 06:19:37;;;;;;;;;;;;;;;21.81;54.88;100809.69;5086539;28;885;-38
2022/06/27 06:22:03;;;;;;;;;;;;;;;22.34;49.91;100802.84;5075240;28;839;-37
2022/06/27 06:24:29;;;;;;;;;;;;;;;20.48;59.20;100806.44;5077612;28;1190;-36
2022/06/27 06:26:56;;;;;;;;;;;;;;;23.25;48.90;100802.09;5077505;28;1111;-37
2022/06/27 06:29:22;;;;;;;;;;;;;;;20.68;55.31;100810.00;5077525;28;1131;-35
2022/06/27 06:31:48;;;;;;;;;;;;;;;21.94;53.90;100802.19;5082817;28;2375;-32
2022/06/27 06:34:13;;;;;;;;;;;;;;;22.45;49.94;100801.81;5079543;28;2056;-34
2022/06/27 06:36:39;;;;;;;;;;;;;;;20.26;57.21;100800.34;5074239;28;1962;-37
2022/06/27 06:39:05;;;;;;;;;;;;;;;22.12;53.69;100788.84;5087894;28;2144;-39
2022/06/27 06:41:31;;;;;;;;;;;;;;;21.76;51.06;100796.72;5065273;28;1934;-33
2022/06/27 06:43:59;;;;;;;;;;;;;;;20.17;55.64;100788.63;5087432;28;1792;-35
2022/06/27 06:46:25;;;;;;;;;;;;;;;19.52;57.13;100800.34;5078789;28;2209;-35
2022/06/27 06:48:53;;;;;;;;;;;;;;;19.39;59.66;100791.69;5087033;28;976;-35
2022/06/27 06:51:18;;;;;;;;;;;;;;;22.36;50.91;100790.16;5076272;28;1129;-38
2022/06/27 06:53:44;;;;;;;;;;;;;;;20.53;53.64;100798.88;5077016;28;1051;-36
2022/06/27 06:56:10;;;;;;;;;;;;;;;19.49;56.60;100791.75;5074368;28;1901;-39
2022/06/27 06:58:35;;;;;;;;;;;;;;;19.18;57.21;100790.72;5077111;28;1009;-35
2022/06/27 07:01:01;;;;;;;;;;;;;;;19.07;57.57;100793.38;5077024;28;1036;-33
2022/06/27 07:03:27;;;;;;;;;;;;;;;19.00;57.72;100792.22;5085466;28;1130;-34
2022/06/27 07:05:54;;;;;;;;;;;;;;;21.22;54.29;100786.56;5063327;28;1024;-36
2022/06/27 07:08:20;;;;;;;;;;;;;;;23.09;53.23;100800.97;5082660;28;1047;-36
2022/06/27 07:10:45;;;;;;;;;;;;;;;24.18;46.01;100796.31;5072003;28;972;-39
2022/06/27 07:13:11;;;;;;;;;;;;;;;24.25;48.67;100808.13;5076997;28;960;-35
2022/06/27 07:15:38;;;;;;;;;;;;;;;25.12;43.09;100802.59;5076609;28;1931;-37
2022/06/27 07:18:04;;;;;;;;;;;;;;;24.95;44.82;100805.28;5076897;28;1028;-32
2022/06/27 07:20:30;;;;;;;;;;;;;;;25.05;46.30;100803.28;5074440;28;1028;-37
2022/06/27 07:22:55;;;;;;;;;;;;;;;25.34;42.36;100808.31;5080777;28;1533;-31
2022/06/27 07:25:21;;;;;;;;;;;;;;;25.23;44.92;100814.88;5076644;28;1051;-36
2022/06/27 07:27:46;;;;;;;;;;;;;;;25.91;42.21;100799.28;5076688;28;1158;-31
2022/06/27 07:30:12;;;;;;;;;;;;;;;25.74;43.96;100794.97;5075601;28;2535;-33
2022/06/27 07:32:40;;;;;;;;;;;;;;;25.60;45.84;100805.41;5077743;28;2032;-35
2022/06/27 07:35:07;;;;;;;;;;;;;;;26.05;42.52;100796.88;5078462;28;1959;-32
2022/06/27 07:37:33;;;;;;;;;;;;;;;25.81;44.19;100801.34;5075172;28;1957;-31
2022/06/27 07:39:58;;;;;;;;;;;;;;;26.19;43.96;100799.88;5085579;28;2156;-30
2022/06/27 07:42:24;;;;;;;;;;;;;;;23.04;50.00;100791.72;5077391;28;2183;-32
2022/06/27 07:44:50;;;;;;;;;;;;;;;20.72;54.37;100785.69;5081951;28;1879;-31
2022/06/27 07:47:15;;;;;;;;;;;;;;;20.26;56.24;100791.47;5083533;28;2164;-36
2022/06/27 07:49:40;;;;;;;;;;;;;;;20.00;56.97;100783.91;5091861;28;1122;-36
2022/06/27 07:52:06;;;;;;;;;;;;;;;19.91;56.83;100790.88;5082358;28;979;-33
2022/06/27 07:54:32;;;;;;;;;;;;;;;19.78;57.49;100789.28;5075805;28;1987;-34
2022/06/27 07:56:57;;;;;;;;;;;;;;;19.74;57.90;100790.50;5076263;28;996;-33
2022/06/27 07:59:22;;;;;;;;;;;;;;;22.01;53.11;100789.91;5081666;28;1004;-31
2022/06/27 08:01:48;;;;;;;;;;;;;;;23.89;47.55;100786.78;5077276;28;1075;-30
2022/06/27 08:04:14;;;;;;;;;;;;;;;20.15;55.63;100787.09;5076294;28;1087;-35
2022/06/27 08:06:41;;;;;;;;;;;;;;;19.73;57.08;100785.31;5082888;28;1178;-29
2022/06/27 08:09:07;;;;;;;;;;;;;;;19.44;58.13;100793.00;5076755;28;1150;-32
2022/06/27 08:11:33;;;;;;;;;;;;;;;19.35;58.22;100780.47;5075779;28;980;-32
2022/06/27 08:14:03;;;;;;;;;;;;;;;19.48;58.31;100779.41;5075458;28;1965;-31
2022/06/27 08:16:28;;;;;;;;;;;;;;;19.55;61.91;100791.25;5069746;28;2570;-30
2022/06/27 08:18:53;;;;;;;;;;;;;;;22.34;51.47;100788.59;5057680;28;1199;-32
2022/06/27 08:21:20;;;;;;;;;;;;;;;21.80;51.13;100789.28;5090493;28;957;-30
2022/06/27 08:23:46;;;;;;;;;;;;;;;19.73;57.23;100787.97;5082200;28;1129;-32
2022/06/27 08:26:12;;;;;;;;;;;;;;;19.29;58.30;100783.63;5082230;28;1127;-34
2022/06/27 08:28:38;;;;;;;;;;;;;;;19.20;58.58;100786.09;5075864;28;1008;-30
2022/06/27 08:31:05;;;;;;;;;;;;;;;19.27;58.73;100797.09;5076342;28;949;-31
2022/06/27 08:33:31;;;;;;;;;;;;;;;19.14;59.21;100791.09;5076626;28;992;-30
2022/06/27 08:35:57;;;;;;;;;;;;;;;20.10;62.13;100792.84;5077521;28;1955;-34
2022/06/27 08:38:23;;;;;;;;;;;;;;;22.82;50.80;100792.00;5075646;28;821;-33
2022/06/27 08:40:50;;;;;;;;;;;;;;;20.57;53.89;100793.25;5075759;28;949;-33
2022/06/27 08:43:16;;;;;;;;;;;;;;;19.48;57.64;100784.75;5081948;28;1009;-30
2022/06/27 08:45:43;;;;;;;;;;;;;;;19.14;58.40;100786.63;5084137;28;2421;-31
2022/06/27 08:48:09;;;;;;;;;;;;;;;19.24;58.43;100777.84;5066021;28;1273;-31
2022/06/27 08:50:34;;;;;;;;;;;;;;;19.00;58.98;100779.72;5084881;28;979;-29
2022/06/27 08:52:59;;;;;;;;;;;;;;;19.00;59.24;100786.91;5077138;28;967;-31
2022/06/27 08:55:25;;;;;;;;;;;;;;;20.38;60.52;100779.69;5087448;28;1909;-31
2022/06/27 08:57:50;;;;;;;;;;;;;;;23.02;50.14;100781.13;5061780;28;1024;-32
2022/06/27 09:00:17;;;;;;;;;;;;;;;24.07;48.68;100781.31;5078979;28;1218;-33
2022/06/27 09:02:43;;;;;;;;;;;;;;;24.58;50.13;100781.31;5079397;28;1035;-31
2022/06/27 09:05:21;;;;;;;;;;;;;;;21.55;52.88;100762.97;5089161;28;933;-30
2022/06/27 09:07:48;;;;;;;;;;;;;;;19.50;56.39;100766.78;5076339;28;1004;-34
2022/06/27 09:10:27;;;;;;;;;;;;;;;18.90;57.19;100768.16;5078866;28;1028;-29
2022/06/27 09:12:59;;;;;;;;;;;;;;;19.12;58.09;100769.06;5079079;28;1036;-31
2022/06/27 09:15:29;;;;;;;;;;;;;;;19.01;58.60;100765.44;5078618;28;2015;-32
2022/06/27 09:18:04;;;;;;;;;;;;;;;19.02;58.59;100763.63;5078018;28;916;-29
2022/06/27 09:20:49;;;;;;;;;;;;;;;19.17;58.60;100762.34;5076155;28;1163;-30
2022/06/27 09:23:31;;;;;;;;;;;;;;;19.63;63.49;100761.25;5078604;28;1055;-30
2022/06/27 09:26:00;;;;;;;;;;;;;;;22.65;51.16;100763.34;5078331;28;929;-32
2022/06/27 09:28:37;;;;;;;;;;;;;;;20.66;53.71;100761.19;5076892;28;1035;-31
2022/06/27 09:31:03;;;;;;;;;;;;;;;19.47;57.84;100749.19;5080573;28;988;-35
2022/06/27 09:33:31;;;;;;;;;;;;;;;19.13;58.44;100758.28;5078642;28;1055;-32
2022/06/27 09:35:56;;;;;;;;;;;;;;;19.17;59.00;100751.69;5087717;28;1965;-33
2022/06/27 09:38:21;;;;;;;;;;;;;;;19.17;59.18;100750.84;5078443;28;1032;-32
2022/06/27 09:40:47;;;;;;;;;;;;;;;19.09;58.99;100746.97;5078563;28;981;-31
2022/06/27 09:43:12;;;;;;;;;;;;;;;20.87;57.21;100744.16;5089406;28;1143;-31
2022/06/27 09:45:38;;;;;;;;;;;;;;;23.14;49.97;100738.78;5066696;28;1983;-32
2022/06/27 09:48:04;;;;;;;;;;;;;;;20.48;54.86;100741.47;5078558;28;984;-36
2022/06/27 09:50:32;;;;;;;;;;;;;;;20.99;53.71;100744.88;5075174;28;965;-33
2022/06/27 09:52:57;;;;;;;;;;;;;;;20.80;54.03;100745.72;5073137;28;968;-31
2022/06/27 09:55:25;;;;;;;;;;;;;;;20.91;54.52;100744.72;5080112;28;1901;-32
2022/06/27 09:57:55;;;;;;;;;;;;;;;20.96;55.54;100758.53;5077905;28;994;-34
2022/06/27 10:00:20;;;;;;;;;;;;;;;21.13;56.92;100762.34;5078378;28;1051;-32
2022/06/27 10:02:46;;;;;;;;;;;;;;;20.70;58.79;100747.53;5077511;28;1079;-31
2022/06/27 10:05:14;;;;;;;;;;;;;;;20.13;60.20;100755.16;5076067;28;1257;-30
2022/06/27 10:07:42;;;;;;;;;;;;;;;20.56;59.30;100754.97;5056789;28;913;-33
2022/06/27 10:10:08;;;;;;;;;;;;;;;20.41;58.80;100752.72;5059880;28;957;-33
2022/06/27 10:12:36;;;;;;;;;;;;;;;20.31;58.82;100750.03;5077810;28;1234;-34
2022/06/27 10:15:10;;;;;;;;;;;;;;;20.20;58.06;100742.13;5059337;28;2201;-31
2022/06/27 10:17:56;;;;;;;;;;;;;;;19.72;58.76;100741.75;5087761;28;1884;-31
2022/06/27 10:20:28;;;;;;;;;;;;;;;19.39;59.10;100728.53;5071087;28;2080;-31
2022/06/27 10:23:03;;;;;;;;;;;;;;;19.16;58.60;100736.69;5084247;28;2138;-30
2022/06/27 10:25:28;;;;;;;;;;;;;;;19.02;58.46;100726.31;5078571;28;2226;-34
2022/06/27 10:28:13;;;;;;;;;;;;;;;19.00;58.27;100725.59;5076962;28;1937;-29
2022/06/27 10:30:39;;;;;;;;;;;;;;;18.95;58.55;100729.47;5078435;28;1816;-31
2022/06/27 10:33:25;;;;;;;;;;;;;;;19.02;58.65;100721.78;5074406;28;893;-30
2022/06/27 10:35:54;;;;;;;;;;;;;;;21.93;53.77;100724.66;5076766;28;1954;-30
2022/06/27 10:38:26;;;;;;;;;;;;;;;23.32;53.16;100719.13;5070147;28;925;-33
2022/06/27 10:40:51;;;;;;;;;;;;;;;24.66;45.03;100718.63;5089871;28;1115;-30
2022/06/27 10:43:36;;;;;;;;;;;;;;;24.72;45.37;100717.13;5077299;28;1023;-31
2022/06/27 10:46:21;;;;;;;;;;;;;;;24.69;48.18;100712.09;5067151;28;1001;-32
2022/06/27 10:48:47;;;;;;;;;;;;;;;25.44;42.50;100707.47;5061694;28;1264;-32
2022/06/27 10:51:19;;;;;;;;;;;;;;;25.27;43.64;100706.69;5075429;28;1107;-31
2022/06/27 10:53:45;;;;;;;;;;;;;;;25.08;45.18;100697.13;5076690;28;1075;-30
2022/06/27 10:56:31;;;;;;;;;;;;;;;25.39;41.60;100682.09;5076748;28;1898;-30
2022/06/27 10:59:00;;;;;;;;;;;;;;;25.35;43.32;100689.66;5068639;28;917;-34
2022/06/27 11:01:26;;;;;;;;;;;;;;;25.58;42.42;100688.91;5076455;28;2420;-31
2022/06/27 11:03:51;;;;;;;;;;;;;;;25.70;39.64;100669.69;5076228;28;997;-30
2022/06/27 11:06:17;;;;;;;;;;;;;;;25.51;42.29;100675.31;5076752;28;960;-30
2022/06/27 11:08:43;;;;;;;;;;;;;;;25.98;38.87;100682.69;5076825;28;1158;-34
2022/06/27 11:11:08;;;;;;;;;;;;;;;25.73;40.68;100675.59;5076354;28;842;-30
2022/06/27 11:13:36;;;;;;;;;;;;;;;25.71;42.18;100672.22;5070100;28;1012;-30
2022/06/27 11:16:02;;;;;;;;;;;;;;;25.98;38.65;100675.47;5069864;28;1951;-30
2022/06/27 11:18:38;;;;;;;;;;;;;;;25.71;41.31;100657.94;5076038;28;964;-31
2022/06/27 11:21:03;;;;;;;;;;;;;;;26.18;38.19;100661.50;5075309;28;1138;-29
2022/06/27 11:23:29;;;;;;;;;;;;;;;25.99;38.03;100666.34;5076623;28;1055;-30
2022/06/27 11:25:56;;;;;;;;;;;;;;;25.75;41.12;100668.16;5061366;28;1225;-30
2022/06/27 11:33:49;;;;;;;;;;;;;;;25.73;40.83;100658.56;5076373;28;992;-33
2022/06/27 11:36:15;;;;;;;;;;;;;;;26.34;36.99;100660.59;5075305;28;1894;-33
2022/06/27 11:38:44;;;;;;;;;;;;;;;25.97;37.26;100663.00;5085054;28;1008;-36
2022/06/27 11:41:10;;;;;;;;;;;;;;;26.12;37.99;100662.25;5077391;28;1033;-34
2022/06/27 11:43:53;;;;;;;;;;;;;;;26.48;37.13;100668.91;5076506;28;996;-33
2022/06/27 11:46:39;;;;;;;;;;;;;;;26.49;38.33;100663.34;5076718;28;993;-33
2022/06/27 11:49:14;;;;;;;;;;;;;;;26.57;38.53;100673.25;5072993;28;1601;-31
2022/06/27 11:51:40;;;;;;;;;;;;;;;26.77;37.70;100672.72;5085392;28;1146;-31
2022/06/27 11:54:09;;;;;;;;;;;;;;;26.58;39.60;100672.22;5085911;28;1914;-34
2022/06/27 11:56:39;;;;;;;;;;;;;;;21.72;48.89;100664.97;5078293;28;1178;-31
2022/06/27 11:59:05;;;;;;;;;;;;;;;20.37;52.61;100667.63;5075855;28;965;-34
2022/06/27 12:01:30;;;;;;;;;;;;;;;20.07;53.51;100659.56;5075691;28;1852;-31
2022/06/27 12:04:12;;;;;;;;;;;;;;;19.95;54.65;100661.50;5058565;28;1025;-29
2022/06/27 12:06:44;;;;;;;;;;;;;;;19.90;54.97;100658.38;5074966;28;964;-33
2022/06/27 12:09:09;;;;;;;;;;;;;;;19.80;55.31;100669.84;5076448;28;1139;-30
2022/06/27 12:11:35;;;;;;;;;;;;;;;19.75;55.90;100669.41;5076400;28;957;-30
2022/06/27 12:14:00;;;;;;;;;;;;;;;20.02;59.45;100680.47;5075268;28;996;-32
2022/06/27 12:16:25;;;;;;;;;;;;;;;22.90;49.58;100683.09;5083160;28;1901;-32
2022/06/27 12:18:53;;;;;;;;;;;;;;;24.16;50.74;100693.47;5082589;28;1018;-30
2022/06/27 12:21:20;;;;;;;;;;;;;;;20.70;52.54;100686.91;5080611;28;834;-30
2022/06/27 12:23:45;;;;;;;;;;;;;;;19.74;55.33;100690.91;5079946;28;1024;-32
2022/06/27 12:26:10;;;;;;;;;;;;;;;19.53;55.99;100699.81;5080106;28;1234;-31
2022/06/27 12:28:36;;;;;;;;;;;;;;;19.48;56.44;100691.38;5083990;28;881;-31
2022/06/27 12:31:01;;;;;;;;;;;;;;;19.36;56.36;100685.25;5081817;28;2347;-32
2022/06/27 12:33:27;;;;;;;;;;;;;;;19.28;56.86;100694.78;5079895;28;985;-31
2022/06/27 12:35:52;;;;;;;;;;;;;;;19.86;61.42;100697.84;5076576;28;1898;-31
2022/06/27 12:38:18;;;;;;;;;;;;;;;22.79;49.86;100697.63;5079663;28;1220;-30
2022/06/27 12:40:43;;;;;;;;;;;;;;;23.88;50.08;100694.56;5081054;28;1455;-34
2022/06/27 12:43:08;;;;;;;;;;;;;;;25.00;43.45;100695.28;5081793;28;1493;-33
2022/06/27 12:45:34;;;;;;;;;;;;;;;25.04;44.40;100699.31;5079047;28;1063;-33
2022/06/27 12:47:59;;;;;;;;;;;;;;;25.14;46.45;100703.69;5079127;28;1123;-32
2022/06/27 12:50:25;;;;;;;;;;;;;;;25.70;42.38;100704.72;5059520;28;1394;-32
2022/06/27 12:52:50;;;;;;;;;;;;;;;25.56;44.17;100705.25;5083610;28;1102;-34
2022/06/27 12:55:15;;;;;;;;;;;;;;;25.92;43.39;100698.53;5091709;28;1910;-34
2022/06/27 12:57:41;;;;;;;;;;;;;;;25.99;42.11;100708.66;5091741;28;956;-32